Burgas, Bulgaria
Current Conditions -  °F | °C
As of 3:30 PM on Sunday 21 Dec 2014 (Local Time) from LBBG Reporting Station
Broken Clouds Broken Clouds  
Wind Chill: 38°   Ceiling: 3400
Heat Index: 46°   Visibility: 6mi
Dew Point: 37°   Wind: 26mph
Humidity: 71%   Direction: 300°WNW
Pressure: 30.03"   Gusts: NA
Location:  42.51°N, 27.47°E
Report Text: LBBG 211230Z 30023KT 9999 SCT028 BKN034 08/03 Q1017 NOSIG
Loading
Personal Weather Stations






























Interactive Weather Map New forecast layout! Learn more

10-Day Weather Forecast

Advertisements
Track Severe Weather on mobile